createdAt,value
2023-04-16T00:01:58.527Z,9.07
2023-04-16T00:04:44.523Z,9.00
2023-04-16T00:07:30.630Z,9.03
2023-04-16T00:10:16.421Z,9.01
2023-04-16T00:13:02.502Z,8.98
2023-04-16T00:15:48.358Z,8.78
2023-04-16T00:18:34.367Z,8.98
2023-04-16T00:21:20.037Z,8.96
2023-04-16T00:24:05.877Z,9.00
2023-04-16T00:26:51.337Z,9.01
2023-04-16T00:29:37.282Z,8.77
2023-04-16T00:32:23.368Z,9.11
2023-04-16T00:35:09.716Z,9.17
2023-04-16T00:37:55.099Z,9.22
2023-04-16T00:40:40.901Z,9.12
2023-04-16T00:43:26.859Z,9.09
2023-04-16T00:46:13.107Z,9.23
2023-04-16T00:49:00.385Z,9.10
2023-04-16T00:51:46.624Z,9.25
2023-04-16T00:54:32.532Z,9.14
2023-04-16T00:57:21.091Z,9.05
2023-04-16T01:00:07.451Z,8.86
2023-04-16T01:02:53.972Z,9.02
2023-04-16T01:05:39.751Z,8.99
2023-04-16T01:08:26.159Z,8.72
2023-04-16T01:11:12.197Z,8.94
2023-04-16T01:13:57.912Z,8.88
2023-04-16T01:16:43.948Z,8.81
2023-04-16T01:19:36.248Z,8.48
2023-04-16T01:22:22.292Z,8.56
2023-04-16T01:25:29.239Z,8.34
2023-04-16T01:28:23.572Z,8.02
2023-04-16T01:31:12.016Z,8.29
2023-04-16T01:34:10.187Z,8.57
2023-04-16T01:36:55.921Z,8.50
2023-04-16T01:39:41.532Z,8.51
2023-04-16T01:42:28.198Z,8.46
2023-04-16T01:45:13.906Z,8.57
2023-04-16T01:48:00.808Z,8.48
2023-04-16T01:50:46.436Z,8.55
2023-04-16T01:53:32.344Z,8.66
2023-04-16T01:56:17.769Z,8.62
2023-04-16T01:59:03.811Z,8.65
2023-04-16T02:01:55.831Z,8.59
2023-04-16T02:04:45.074Z,8.51
2023-04-16T02:07:31.837Z,8.51
2023-04-16T02:10:17.525Z,8.31
2023-04-16T02:13:03.863Z,8.50
2023-04-16T02:15:50.986Z,8.54
2023-04-16T02:18:43.673Z,8.49
2023-04-16T02:21:31.869Z,8.62
2023-04-16T02:24:17.863Z,8.41
2023-04-16T02:27:04.050Z,8.51
2023-04-16T02:29:49.398Z,8.54
2023-04-16T02:32:37.010Z,8.52
2023-04-16T02:35:22.866Z,8.41
2023-04-16T02:38:09.193Z,8.23
2023-04-16T02:40:55.289Z,8.37
2023-04-16T02:43:40.935Z,8.34
2023-04-16T02:46:27.528Z,8.03
2023-04-16T02:49:13.833Z,8.26
2023-04-16T02:51:59.104Z,8.28
2023-04-16T02:54:45.076Z,8.32
2023-04-16T02:57:30.756Z,8.27
2023-04-16T03:00:16.493Z,8.30
2023-04-16T03:03:02.629Z,8.31
2023-04-16T03:05:48.716Z,8.37
2023-04-16T03:08:35.260Z,8.37
2023-04-16T03:11:21.758Z,8.06
2023-04-16T03:14:07.387Z,8.18
2023-04-16T03:16:53.117Z,8.35
2023-04-16T03:19:38.566Z,8.15
2023-04-16T03:22:24.471Z,8.35
2023-04-16T03:25:10.146Z,8.35
2023-04-16T03:27:55.823Z,8.15
2023-04-16T03:30:42.104Z,8.28
2023-04-16T03:33:28.170Z,8.24
2023-04-16T03:36:14.085Z,8.21
2023-04-16T03:39:00.244Z,8.16
2023-04-16T03:41:47.142Z,8.15
2023-04-16T03:44:33.849Z,8.17
2023-04-16T03:47:20.710Z,8.11
2023-04-16T03:50:08.547Z,8.21
2023-04-16T03:52:55.452Z,8.24
2023-04-16T03:55:42.000Z,8.06
2023-04-16T03:58:28.305Z,8.23
2023-04-16T04:01:15.817Z,8.20
2023-04-16T04:04:01.922Z,8.27
2023-04-16T04:06:47.978Z,8.14
2023-04-16T04:09:34.104Z,8.41
2023-04-16T04:12:21.998Z,8.50
2023-04-16T04:15:08.265Z,8.74
2023-04-16T04:17:54.004Z,8.59
2023-04-16T04:20:41.328Z,8.56
2023-04-16T04:23:27.637Z,8.52
2023-04-16T04:26:13.187Z,8.26
2023-04-16T04:28:59.791Z,8.13
2023-04-16T04:31:45.766Z,8.31
2023-04-16T04:34:36.606Z,8.26
2023-04-16T04:37:22.843Z,8.24
2023-04-16T04:40:17.796Z,8.27
2023-04-16T04:42:56.182Z,7.98
2023-04-16T04:45:43.236Z,8.44
2023-04-16T04:48:29.188Z,8.48
2023-04-16T04:51:15.478Z,8.48
2023-04-16T04:54:02.622Z,8.47
2023-04-16T04:56:48.283Z,8.77
2023-04-16T04:59:33.779Z,8.82
2023-04-16T05:02:19.550Z,8.66
2023-04-16T05:05:05.860Z,8.98
2023-04-16T05:07:51.496Z,8.97
2023-04-16T05:10:36.926Z,8.83
2023-04-16T05:13:22.777Z,8.59
2023-04-16T05:16:08.490Z,8.61
2023-04-16T05:18:56.061Z,8.87
2023-04-16T05:21:41.684Z,8.90
2023-04-16T05:24:27.475Z,8.91
2023-04-16T05:27:13.352Z,8.85
2023-04-16T05:29:59.042Z,8.71
2023-04-16T05:32:44.501Z,8.83
2023-04-16T05:35:30.642Z,8.71
2023-04-16T05:38:16.581Z,8.82
2023-04-16T05:41:02.485Z,8.93
2023-04-16T05:43:48.539Z,8.90
2023-04-16T05:46:34.772Z,8.81
2023-04-16T05:49:21.480Z,8.80
2023-04-16T05:52:07.555Z,8.93
2023-04-16T05:54:53.202Z,8.88
2023-04-16T05:57:38.947Z,8.80
2023-04-16T06:00:24.478Z,8.82
2023-04-16T06:03:10.504Z,8.84
2023-04-16T06:05:56.573Z,8.69
2023-04-16T06:08:42.606Z,8.99
2023-04-16T06:11:32.417Z,9.17
2023-04-16T06:14:19.008Z,9.21
2023-04-16T06:17:04.653Z,9.16
2023-04-16T06:19:50.513Z,9.03
2023-04-16T06:22:36.076Z,9.08
2023-04-16T06:25:21.651Z,9.01
2023-04-16T06:28:07.671Z,9.04
2023-04-16T06:30:53.390Z,9.07
2023-04-16T06:33:38.860Z,9.17
2023-04-16T06:36:25.130Z,9.13
2023-04-16T06:39:10.862Z,9.07
2023-04-16T06:41:57.298Z,9.09
2023-04-16T06:44:42.735Z,9.08
2023-04-16T06:47:28.475Z,8.98
2023-04-16T06:50:13.775Z,9.20
2023-04-16T06:52:59.512Z,9.03
2023-04-16T06:55:45.358Z,9.21
2023-04-16T06:58:31.372Z,8.93
2023-04-16T07:01:17.595Z,9.10
2023-04-16T07:04:04.454Z,9.14
2023-04-16T07:06:50.218Z,9.12
2023-04-16T07:09:35.921Z,9.10
2023-04-16T07:12:22.826Z,8.89
2023-04-16T07:15:10.034Z,9.17
2023-04-16T07:17:55.916Z,9.24
2023-04-16T07:20:42.192Z,9.23
2023-04-16T07:23:28.083Z,9.15
2023-04-16T07:26:14.024Z,9.08
2023-04-16T07:28:59.707Z,8.95
2023-04-16T07:31:45.905Z,9.19
2023-04-16T07:34:34.829Z,9.22
2023-04-16T07:37:20.987Z,9.16
2023-04-16T07:40:07.582Z,9.14
2023-04-16T07:42:53.280Z,8.94
2023-04-16T07:45:39.637Z,9.13
2023-04-16T07:48:26.798Z,9.24
2023-04-16T07:51:12.354Z,9.30
2023-04-16T07:53:58.324Z,9.50
2023-04-16T07:56:43.826Z,9.54
2023-04-16T07:59:29.860Z,9.52
2023-04-16T08:02:16.763Z,9.46
2023-04-16T08:05:03.549Z,9.41
2023-04-16T08:07:49.228Z,9.53
2023-04-16T08:10:35.030Z,9.62
2023-04-16T08:13:20.374Z,9.48
2023-04-16T08:16:06.529Z,9.67
2023-04-16T08:18:52.222Z,9.95
2023-04-16T08:21:37.856Z,9.95
2023-04-16T08:24:23.539Z,9.85
2023-04-16T08:27:18.338Z,10.09
2023-04-16T08:30:06.095Z,9.89
2023-04-16T08:32:52.053Z,10.15
2023-04-16T08:35:37.852Z,10.27
2023-04-16T08:38:24.017Z,10.41
2023-04-16T08:41:12.449Z,10.38
2023-04-16T08:44:01.040Z,10.29
2023-04-16T08:46:47.215Z,10.06
2023-04-16T08:49:36.185Z,10.24
2023-04-16T08:52:24.265Z,10.20
2023-04-16T08:55:14.069Z,10.10
2023-04-16T08:58:00.868Z,9.93
2023-04-16T09:00:47.902Z,10.06
2023-04-16T09:03:36.478Z,9.85
2023-04-16T09:06:23.028Z,10.06
2023-04-16T09:09:09.081Z,10.11
2023-04-16T09:11:56.263Z,10.07
2023-04-16T09:14:43.131Z,10.05
2023-04-16T09:17:29.452Z,10.19
2023-04-16T09:20:15.578Z,10.22
2023-04-16T09:23:01.709Z,10.30
2023-04-16T09:25:47.110Z,10.33
2023-04-16T09:28:43.513Z,10.13
2023-04-16T09:31:28.909Z,10.41
2023-04-16T09:34:15.164Z,10.47
2023-04-16T09:37:17.118Z,10.47
2023-04-16T09:40:04.792Z,10.43
2023-04-16T09:42:52.346Z,10.43
2023-04-16T09:45:54.647Z,10.48
2023-04-16T09:48:40.441Z,10.42
2023-04-16T09:51:26.912Z,10.64
2023-04-16T09:54:12.814Z,10.64
2023-04-16T09:57:01.011Z,10.74
2023-04-16T09:59:47.218Z,10.77
2023-04-16T10:02:34.693Z,10.86
2023-04-16T10:05:20.940Z,10.88
2023-04-16T10:08:14.165Z,10.81
2023-04-16T10:10:59.774Z,10.86
2023-04-16T10:13:46.535Z,10.76
2023-04-16T10:16:33.106Z,10.74
2023-04-16T10:19:19.221Z,10.85
2023-04-16T10:22:05.531Z,10.88
2023-04-16T10:24:52.505Z,10.86
2023-04-16T10:27:38.764Z,10.84
2023-04-16T10:30:25.981Z,10.80
2023-04-16T10:33:12.188Z,10.79
2023-04-16T10:36:09.912Z,10.80
2023-04-16T10:38:59.997Z,10.75
2023-04-16T10:41:46.962Z,10.68
2023-04-16T10:44:33.589Z,10.69
2023-04-16T10:47:19.331Z,10.39
2023-04-16T10:50:16.273Z,10.45
2023-04-16T10:53:22.251Z,10.38
2023-04-16T10:56:07.766Z,10.56
2023-04-16T10:58:55.731Z,10.45
2023-04-16T11:01:43.123Z,10.33
2023-04-16T11:04:33.704Z,10.39
2023-04-16T11:07:32.857Z,10.38
2023-04-16T11:10:20.128Z,10.39
2023-04-16T11:13:06.601Z,10.38
2023-04-16T11:15:57.915Z,10.37
2023-04-16T11:18:50.973Z,10.43
2023-04-16T11:21:37.821Z,10.46
2023-04-16T11:24:25.149Z,10.30
2023-04-16T11:27:16.200Z,10.55
2023-04-16T11:30:07.491Z,10.59
2023-04-16T11:32:53.632Z,10.49
2023-04-16T11:35:39.749Z,10.61
2023-04-16T11:38:40.998Z,10.48
2023-04-16T11:41:26.484Z,10.65
2023-04-16T11:44:24.191Z,10.51
2023-04-16T11:47:09.818Z,10.79
2023-04-16T11:49:56.125Z,10.76
2023-04-16T11:52:41.915Z,10.86
2023-04-16T11:55:28.201Z,10.75
2023-04-16T11:58:17.383Z,10.71
2023-04-16T12:01:04.390Z,10.89
2023-04-16T12:03:50.015Z,10.89
2023-04-16T12:06:36.785Z,10.88
2023-04-16T12:09:27.176Z,10.85
2023-04-16T12:12:27.576Z,10.76
2023-04-16T12:15:13.867Z,10.82
2023-04-16T12:18:08.096Z,10.85
2023-04-16T12:20:54.389Z,10.99
2023-04-16T12:23:40.667Z,11.12
2023-04-16T12:26:26.676Z,11.26
2023-04-16T12:29:20.249Z,11.35
2023-04-16T12:32:22.022Z,11.35
2023-04-16T12:35:09.284Z,11.42
2023-04-16T12:37:55.195Z,11.46
2023-04-16T12:40:41.837Z,11.41
2023-04-16T12:43:28.544Z,11.37
2023-04-16T12:46:14.802Z,11.30
2023-04-16T12:49:00.977Z,11.34
2023-04-16T12:51:46.910Z,11.13
2023-04-16T12:54:32.718Z,11.23
2023-04-16T12:57:19.417Z,11.06
2023-04-16T13:00:08.742Z,11.40
2023-04-16T13:02:54.678Z,11.42
2023-04-16T13:05:41.009Z,11.42
2023-04-16T13:08:27.241Z,11.41
2023-04-16T13:11:13.231Z,11.14
2023-04-16T13:13:59.467Z,11.15
2023-04-16T13:16:45.562Z,11.21
2023-04-16T13:19:31.621Z,11.07
2023-04-16T13:22:17.648Z,11.00
2023-04-16T13:25:04.056Z,11.08
2023-04-16T13:27:49.813Z,10.90
2023-04-16T13:30:35.649Z,11.05
2023-04-16T13:33:21.775Z,11.02
2023-04-16T13:36:07.820Z,10.80
2023-04-16T13:38:53.844Z,10.91
2023-04-16T13:41:39.909Z,10.91
2023-04-16T13:44:25.841Z,10.91
2023-04-16T13:47:12.081Z,10.70
2023-04-16T13:49:58.189Z,10.90
2023-04-16T13:52:43.972Z,10.76
2023-04-16T13:55:31.758Z,10.78
2023-04-16T13:58:17.684Z,10.59
2023-04-16T14:01:03.964Z,10.60
2023-04-16T14:03:50.189Z,10.58
2023-04-16T14:06:36.400Z,10.56
2023-04-16T14:09:22.807Z,10.44
2023-04-16T14:12:08.503Z,10.36
2023-04-16T14:14:54.527Z,10.25
2023-04-16T14:17:41.106Z,10.25
2023-04-16T14:20:26.966Z,10.05
2023-04-16T14:23:12.557Z,10.14
2023-04-16T14:25:58.439Z,10.13
2023-04-16T14:28:44.495Z,9.93
2023-04-16T14:31:30.779Z,10.03
2023-04-16T14:34:16.915Z,9.77
2023-04-16T14:37:02.764Z,9.94
2023-04-16T14:39:48.380Z,9.89
2023-04-16T14:42:36.619Z,9.81
2023-04-16T14:45:22.915Z,9.90
2023-04-16T14:48:09.070Z,9.91
2023-04-16T14:50:55.060Z,9.95
2023-04-16T14:53:41.012Z,9.97
2023-04-16T14:56:26.863Z,9.90
2023-04-16T14:59:13.050Z,9.82
2023-04-16T15:01:58.828Z,9.85
2023-04-16T15:04:45.367Z,9.84
2023-04-16T15:07:31.695Z,9.88
2023-04-16T15:10:17.553Z,9.83
2023-04-16T15:13:03.079Z,9.84
2023-04-16T15:15:49.273Z,9.76
2023-04-16T15:18:34.974Z,9.86
2023-04-16T15:21:20.963Z,9.75
2023-04-16T15:24:06.812Z,9.37
2023-04-16T15:26:52.683Z,9.72
2023-04-16T15:29:38.258Z,9.69
2023-04-16T15:32:24.198Z,9.64
2023-04-16T15:35:11.304Z,9.41
2023-04-16T15:37:57.921Z,9.59
2023-04-16T15:40:43.253Z,9.61
2023-04-16T15:43:29.882Z,9.57
2023-04-16T15:46:15.660Z,9.56
2023-04-16T15:49:02.262Z,9.54
2023-04-16T15:51:48.151Z,9.48
2023-04-16T15:54:34.280Z,9.48
2023-04-16T15:57:19.759Z,9.45
2023-04-16T16:00:13.952Z,9.40
2023-04-16T16:02:59.790Z,9.41
2023-04-16T16:05:48.993Z,9.37
2023-04-16T16:08:36.079Z,9.33
2023-04-16T16:11:21.994Z,9.30
2023-04-16T16:14:07.361Z,9.28
2023-04-16T16:16:53.443Z,9.26
2023-04-16T16:19:39.475Z,9.17
2023-04-16T16:22:25.710Z,9.20
2023-04-16T16:25:11.508Z,9.16
2023-04-16T16:27:58.825Z,9.21
2023-04-16T16:30:45.010Z,9.19
2023-04-16T16:33:31.105Z,9.16
2023-04-16T16:36:17.538Z,9.12
2023-04-16T16:39:04.733Z,9.08
2023-04-16T16:41:52.374Z,8.89
2023-04-16T16:44:38.418Z,9.01
2023-04-16T16:47:27.004Z,8.78
2023-04-16T16:50:12.947Z,8.98
2023-04-16T16:52:59.615Z,8.93
2023-04-16T16:55:45.253Z,8.98
2023-04-16T16:58:30.714Z,8.94
2023-04-16T17:01:17.963Z,8.55
2023-04-16T17:04:03.449Z,8.90
2023-04-16T17:06:49.549Z,8.89
2023-04-16T17:09:35.525Z,8.83
2023-04-16T17:12:23.290Z,8.77
2023-04-16T17:15:09.518Z,8.77
2023-04-16T17:17:55.856Z,8.72
2023-04-16T17:20:42.107Z,8.68
2023-04-16T17:23:27.907Z,8.70
2023-04-16T17:26:13.394Z,8.58
2023-04-16T17:28:59.360Z,8.62
2023-04-16T17:31:44.985Z,8.63
2023-04-16T17:34:30.752Z,8.62
2023-04-16T17:37:16.654Z,8.63
2023-04-16T17:40:07.325Z,8.67
2023-04-16T17:42:53.038Z,8.65
2023-04-16T17:45:38.727Z,8.65
2023-04-16T17:48:24.540Z,8.58
2023-04-16T17:51:16.307Z,8.65
2023-04-16T17:54:03.290Z,8.64
2023-04-16T17:56:49.142Z,8.39
2023-04-16T17:59:34.777Z,8.59
2023-04-16T18:02:20.916Z,8.19
2023-04-16T18:05:07.662Z,8.34
2023-04-16T18:07:55.403Z,8.53
2023-04-16T18:10:41.246Z,8.48
2023-04-16T18:13:27.343Z,8.41
2023-04-16T18:16:19.371Z,8.22
2023-04-16T18:19:05.564Z,8.42
2023-04-16T18:21:52.010Z,8.40
2023-04-16T18:24:37.668Z,8.25
2023-04-16T18:27:23.322Z,8.33
2023-04-16T18:30:18.981Z,8.35
2023-04-16T18:33:34.420Z,8.35
2023-04-16T18:36:14.820Z,8.40
2023-04-16T18:39:02.506Z,8.42
2023-04-16T18:41:48.836Z,8.23
2023-04-16T18:44:34.757Z,8.38
2023-04-16T18:47:21.210Z,8.38
2023-04-16T18:50:08.176Z,8.38
2023-04-16T18:52:54.212Z,8.44
2023-04-16T18:55:39.929Z,8.40
2023-04-16T18:58:26.112Z,8.39
2023-04-16T19:01:13.654Z,8.45
2023-04-16T19:04:01.589Z,8.41
2023-04-16T19:06:48.514Z,8.16
2023-04-16T19:09:34.305Z,8.38
2023-04-16T19:12:19.917Z,8.40
2023-04-16T19:15:06.597Z,8.39
2023-04-16T19:17:52.273Z,8.28
2023-04-16T19:20:38.397Z,8.35
2023-04-16T19:23:24.800Z,8.36
2023-04-16T19:26:10.584Z,8.36
2023-04-16T19:28:56.233Z,8.32
2023-04-16T19:31:42.602Z,8.39
2023-04-16T19:34:28.326Z,8.36
2023-04-16T19:37:14.496Z,8.36
2023-04-16T19:40:00.719Z,8.34
2023-04-16T19:42:46.624Z,8.35
2023-04-16T19:45:32.101Z,8.31
2023-04-16T19:48:18.337Z,8.23
2023-04-16T19:51:05.534Z,8.28
2023-04-16T19:53:53.272Z,8.29
2023-04-16T19:56:38.926Z,8.29
2023-04-16T19:59:28.076Z,8.26
2023-04-16T20:02:13.777Z,8.20
2023-04-16T20:05:01.135Z,8.20
2023-04-16T20:07:46.750Z,8.15
2023-04-16T20:10:32.372Z,8.13
2023-04-16T20:13:18.870Z,8.12
2023-04-16T20:16:05.756Z,8.02
2023-04-16T20:18:54.404Z,8.03
2023-04-16T20:21:40.601Z,8.11
2023-04-16T20:24:27.205Z,8.06
2023-04-16T20:27:14.660Z,8.05
2023-04-16T20:30:00.457Z,8.07
2023-04-16T20:32:46.475Z,8.07
2023-04-16T20:35:31.842Z,8.03
2023-04-16T20:38:23.610Z,7.98
2023-04-16T20:41:14.591Z,7.97
2023-04-16T20:44:05.325Z,7.93
2023-04-16T20:46:51.010Z,7.69
2023-04-16T20:49:46.858Z,7.88
2023-04-16T20:52:32.693Z,7.66
2023-04-16T20:55:19.027Z,7.91
2023-04-16T20:58:04.782Z,7.88
2023-04-16T21:00:51.738Z,7.84
2023-04-16T21:03:37.482Z,7.84
2023-04-16T21:06:23.513Z,7.80
2023-04-16T21:09:12.867Z,7.84
2023-04-16T21:11:58.965Z,7.86
2023-04-16T21:14:44.538Z,7.78
2023-04-16T21:17:30.594Z,7.75
2023-04-16T21:20:16.088Z,7.84
2023-04-16T21:23:03.910Z,7.85
2023-04-16T21:25:49.269Z,7.71
2023-04-16T21:28:35.209Z,7.78
2023-04-16T21:31:20.678Z,7.82
2023-04-16T21:34:06.820Z,7.88
2023-04-16T21:36:52.275Z,7.85
2023-04-16T21:39:38.134Z,7.70
2023-04-16T21:42:23.513Z,7.81
2023-04-16T21:45:10.463Z,7.77
2023-04-16T21:47:56.333Z,7.72
2023-04-16T21:50:42.407Z,7.76
2023-04-16T21:53:32.078Z,7.54
2023-04-16T21:56:18.283Z,7.75
2023-04-16T21:59:04.023Z,7.51
2023-04-16T22:01:49.860Z,7.73
2023-04-16T22:04:39.154Z,7.73
2023-04-16T22:07:27.115Z,7.52
2023-04-16T22:10:14.866Z,7.49
2023-04-16T22:13:01.718Z,7.70
2023-04-16T22:15:47.184Z,7.50
2023-04-16T22:18:33.595Z,7.71
2023-04-16T22:21:19.056Z,7.69
2023-04-16T22:24:05.429Z,7.66
2023-04-16T22:26:51.570Z,7.58
2023-04-16T22:29:37.444Z,7.62
2023-04-16T22:32:23.036Z,7.58
2023-04-16T22:35:10.452Z,7.54
2023-04-16T22:37:55.975Z,7.55
2023-04-16T22:40:42.104Z,7.54
2023-04-16T22:43:27.578Z,7.52
2023-04-16T22:46:13.492Z,7.52
2023-04-16T22:48:59.205Z,7.44
2023-04-16T22:51:46.215Z,7.40
2023-04-16T22:54:32.740Z,7.45
2023-04-16T22:57:21.220Z,7.36
2023-04-16T23:00:09.965Z,7.51
2023-04-16T23:02:56.194Z,7.29
2023-04-16T23:05:42.234Z,7.50
2023-04-16T23:08:27.992Z,7.56
2023-04-16T23:11:13.510Z,7.60
2023-04-16T23:13:59.266Z,7.59
2023-04-16T23:16:44.788Z,7.56
2023-04-16T23:19:31.717Z,7.58
2023-04-16T23:22:17.944Z,7.41
2023-04-16T23:25:03.692Z,7.55
2023-04-16T23:27:49.285Z,7.55
2023-04-16T23:30:35.372Z,7.28
2023-04-16T23:33:20.859Z,7.50
2023-04-16T23:36:07.066Z,7.50
2023-04-16T23:38:52.802Z,7.25
2023-04-16T23:41:38.563Z,7.23
2023-04-16T23:44:24.553Z,7.44
2023-04-16T23:47:10.779Z,7.39
2023-04-16T23:49:56.339Z,7.34
2023-04-16T23:52:42.071Z,7.38
2023-04-16T23:55:27.522Z,7.14
2023-04-16T23:58:13.693Z,7.24
